createdAt,value
2023-02-11T00:01:44.565Z,2.22
2023-02-11T00:04:13.476Z,2.20
2023-02-11T00:06:42.394Z,2.14
2023-02-11T00:09:12.116Z,2.19
2023-02-11T00:11:41.359Z,2.20
2023-02-11T00:14:13.003Z,2.22
2023-02-11T00:16:42.297Z,2.13
2023-02-11T00:19:12.207Z,2.18
2023-02-11T00:21:41.829Z,2.19
2023-02-11T00:24:10.435Z,2.19
2023-02-11T00:26:39.401Z,2.19
2023-02-11T00:29:08.232Z,2.19
2023-02-11T00:31:37.328Z,2.14
2023-02-11T00:34:07.332Z,2.12
2023-02-11T00:36:37.591Z,2.07
2023-02-11T00:39:06.663Z,2.06
2023-02-11T00:41:37.766Z,1.88
2023-02-11T00:44:06.652Z,1.90
2023-02-11T00:46:35.532Z,1.92
2023-02-11T00:49:04.445Z,1.95
2023-02-11T00:51:33.508Z,1.90
2023-02-11T00:54:05.740Z,1.98
2023-02-11T00:56:34.937Z,1.85
2023-02-11T00:59:04.085Z,1.77
2023-02-11T01:01:33.242Z,1.83
2023-02-11T01:04:01.958Z,1.78
2023-02-11T01:06:30.881Z,1.80
2023-02-11T01:08:59.977Z,1.78
2023-02-11T01:11:30.352Z,1.83
2023-02-11T01:13:59.020Z,1.78
2023-02-11T01:16:27.883Z,1.78
2023-02-11T01:18:56.612Z,1.71
2023-02-11T01:21:26.028Z,1.72
2023-02-11T01:23:54.631Z,1.75
2023-02-11T01:26:23.565Z,1.65
2023-02-11T01:28:53.555Z,1.69
2023-02-11T01:31:22.591Z,1.57
2023-02-11T01:33:51.168Z,1.60
2023-02-11T01:36:20.013Z,1.50
2023-02-11T01:38:49.997Z,1.53
2023-02-11T01:41:20.870Z,1.37
2023-02-11T01:43:51.166Z,1.41
2023-02-11T01:46:31.699Z,1.55
2023-02-11T01:49:05.294Z,1.51
2023-02-11T01:51:39.790Z,1.55
2023-02-11T01:54:28.769Z,1.58
2023-02-11T01:57:18.858Z,1.55
2023-02-11T01:59:53.637Z,1.47
2023-02-11T02:02:31.926Z,1.44
2023-02-11T02:05:07.157Z,1.48
2023-02-11T02:07:43.381Z,1.47
2023-02-11T02:10:19.412Z,1.53
2023-02-11T02:12:48.441Z,1.49
2023-02-11T02:15:26.415Z,1.63
2023-02-11T02:18:01.750Z,1.57
2023-02-11T02:21:03.041Z,1.76
2023-02-11T02:23:59.228Z,1.50
2023-02-11T02:27:00.311Z,1.65
2023-02-11T02:30:09.898Z,1.75
2023-02-11T02:32:53.324Z,1.62
2023-02-11T02:35:36.101Z,1.49
2023-02-11T02:38:09.815Z,1.39
2023-02-11T02:40:45.591Z,1.40
2023-02-11T02:43:15.009Z,1.32
2023-02-11T02:45:43.812Z,1.33
2023-02-11T02:48:27.642Z,1.50
2023-02-11T02:51:10.349Z,1.40
2023-02-11T02:53:53.339Z,1.36
2023-02-11T02:56:29.683Z,1.32
2023-02-11T02:59:14.866Z,1.32
2023-02-11T03:01:54.742Z,1.33
2023-02-11T03:04:32.176Z,1.33
2023-02-11T03:07:05.234Z,1.27
2023-02-11T03:09:40.548Z,1.32
2023-02-11T03:12:11.724Z,1.25
2023-02-11T03:14:42.016Z,1.23
2023-02-11T03:17:11.888Z,1.21
2023-02-11T03:19:44.918Z,1.22
2023-02-11T03:22:21.337Z,1.20
2023-02-11T03:24:50.880Z,1.23
2023-02-11T03:27:22.821Z,1.19
2023-02-11T03:29:59.158Z,1.13
2023-02-11T03:32:31.618Z,1.04
2023-02-11T03:35:06.553Z,1.06
2023-02-11T03:37:40.923Z,1.04
2023-02-11T03:40:13.618Z,0.92
2023-02-11T03:42:49.568Z,0.95
2023-02-11T03:45:21.237Z,0.86
2023-02-11T03:47:55.981Z,0.92
2023-02-11T03:50:29.497Z,0.97
2023-02-11T03:53:00.534Z,0.83
2023-02-11T03:55:31.115Z,0.81
2023-02-11T03:58:00.063Z,0.81
2023-02-11T04:00:31.961Z,0.87
2023-02-11T04:03:00.998Z,0.82
2023-02-11T04:05:31.622Z,0.88
2023-02-11T04:08:00.527Z,0.85
2023-02-11T04:10:29.224Z,0.84
2023-02-11T04:12:58.609Z,0.80
2023-02-11T04:15:27.222Z,0.80
2023-02-11T04:17:56.063Z,0.83
2023-02-11T04:20:24.629Z,0.83
2023-02-11T04:22:54.846Z,0.88
2023-02-11T04:25:23.573Z,0.84
2023-02-11T04:27:52.393Z,0.83
2023-02-11T04:30:21.164Z,0.75
2023-02-11T04:32:50.041Z,0.80
2023-02-11T04:35:18.758Z,0.77
2023-02-11T04:37:47.864Z,0.79
2023-02-11T04:40:18.207Z,0.80
2023-02-11T04:42:47.041Z,0.80
2023-02-11T04:45:15.481Z,0.79
2023-02-11T04:47:44.736Z,0.81
2023-02-11T04:50:13.335Z,0.82
2023-02-11T04:52:42.157Z,0.83
2023-02-11T04:55:10.810Z,0.79
2023-02-11T04:57:41.123Z,0.78
2023-02-11T05:00:11.240Z,0.75
2023-02-11T05:02:41.135Z,0.79
2023-02-11T05:05:09.853Z,0.73
2023-02-11T05:07:38.938Z,0.72
2023-02-11T05:10:07.753Z,0.68
2023-02-11T05:12:36.698Z,0.72
2023-02-11T05:15:07.552Z,0.75
2023-02-11T05:17:36.731Z,0.72
2023-02-11T05:20:05.813Z,0.71
2023-02-11T05:22:34.738Z,0.71
2023-02-11T05:25:03.339Z,0.68
2023-02-11T05:27:32.219Z,0.67
2023-02-11T05:30:00.812Z,0.65
2023-02-11T05:32:31.261Z,0.73
2023-02-11T05:34:59.841Z,0.62
2023-02-11T05:37:28.806Z,0.64
2023-02-11T05:39:57.496Z,0.64
2023-02-11T05:42:26.429Z,0.60
2023-02-11T05:44:55.102Z,0.58
2023-02-11T05:47:24.320Z,0.59
2023-02-11T05:49:54.651Z,0.59
2023-02-11T05:52:24.415Z,0.57
2023-02-11T05:54:53.245Z,0.56
2023-02-11T05:57:22.200Z,0.60
2023-02-11T05:59:50.714Z,0.58
2023-02-11T06:02:19.794Z,0.62
2023-02-11T06:04:48.393Z,0.59
2023-02-11T06:07:19.916Z,0.65
2023-02-11T06:09:48.658Z,0.69
2023-02-11T06:12:17.661Z,0.64
2023-02-11T06:14:46.414Z,0.70
2023-02-11T06:17:15.820Z,0.77
2023-02-11T06:19:44.456Z,0.77
2023-02-11T06:22:13.346Z,0.91
2023-02-11T06:25:00.308Z,0.99
2023-02-11T06:27:31.278Z,1.01
2023-02-11T06:30:00.016Z,1.00
2023-02-11T06:32:46.164Z,1.12
2023-02-11T06:35:15.945Z,1.21
2023-02-11T06:37:44.862Z,1.31
2023-02-11T06:40:14.898Z,1.43
2023-02-11T06:42:43.791Z,1.53
2023-02-11T06:45:13.394Z,1.64
2023-02-11T06:47:42.999Z,1.75
2023-02-11T06:50:15.161Z,1.90
2023-02-11T06:52:44.069Z,1.98
2023-02-11T06:55:14.544Z,2.11
2023-02-11T06:57:43.534Z,2.23
2023-02-11T07:00:13.469Z,2.35
2023-02-11T07:02:42.339Z,2.48
2023-02-11T07:05:12.417Z,2.47
2023-02-11T07:07:41.595Z,2.57
2023-02-11T07:10:10.525Z,2.68
2023-02-11T07:12:41.347Z,2.78
2023-02-11T07:15:10.180Z,2.87
2023-02-11T07:17:39.212Z,2.89
2023-02-11T07:20:09.236Z,3.01
2023-02-11T07:22:38.504Z,3.10
2023-02-11T07:25:07.575Z,3.23
2023-02-11T07:27:36.914Z,3.34
2023-02-11T07:30:07.758Z,3.49
2023-02-11T07:32:36.681Z,3.56
2023-02-11T07:35:05.968Z,3.68
2023-02-11T07:37:35.179Z,3.76
2023-02-11T07:40:03.875Z,3.86
2023-02-11T07:42:32.728Z,3.80
2023-02-11T07:45:01.322Z,3.96
2023-02-11T07:47:31.661Z,3.95
2023-02-11T07:50:00.188Z,3.79
2023-02-11T07:52:30.832Z,3.93
2023-02-11T07:54:59.377Z,4.12
2023-02-11T07:57:28.877Z,4.20
2023-02-11T07:59:57.380Z,4.36
2023-02-11T08:02:26.331Z,4.40
2023-02-11T08:04:56.453Z,4.15
2023-02-11T08:07:26.128Z,4.36
2023-02-11T08:09:55.623Z,4.47
2023-02-11T08:12:24.690Z,4.06
2023-02-11T08:14:53.277Z,4.42
2023-02-11T08:17:22.241Z,4.60
2023-02-11T08:19:51.033Z,4.77
2023-02-11T08:22:21.418Z,4.85
2023-02-11T08:24:52.327Z,4.97
2023-02-11T08:27:21.330Z,4.90
2023-02-11T08:29:49.890Z,4.99
2023-02-11T08:32:18.829Z,5.21
2023-02-11T08:34:48.620Z,5.23
2023-02-11T08:37:17.792Z,5.42
2023-02-11T08:39:48.601Z,5.59
2023-02-11T08:42:17.855Z,5.46
2023-02-11T08:44:46.487Z,4.59
2023-02-11T08:47:17.139Z,4.70
2023-02-11T08:49:45.887Z,4.93
2023-02-11T08:52:15.265Z,3.82
2023-02-11T08:54:44.061Z,3.28
2023-02-11T08:57:15.025Z,3.65
2023-02-11T08:59:43.882Z,3.55
2023-02-11T09:02:14.311Z,3.82
2023-02-11T09:04:43.252Z,4.15
2023-02-11T09:07:12.834Z,4.44
2023-02-11T09:09:42.053Z,4.67
2023-02-11T09:12:11.450Z,4.55
2023-02-11T09:14:43.171Z,5.00
2023-02-11T09:17:12.291Z,4.88
2023-02-11T09:19:41.163Z,5.19
2023-02-11T09:22:10.416Z,5.02
2023-02-11T09:24:39.218Z,5.35
2023-02-11T09:27:07.992Z,4.85
2023-02-11T09:29:36.590Z,3.92
2023-02-11T09:32:09.819Z,2.97
2023-02-11T09:34:38.762Z,2.35
2023-02-11T09:37:07.725Z,2.37
2023-02-11T09:39:36.603Z,2.19
2023-02-11T09:42:31.551Z,1.88
2023-02-11T09:45:02.109Z,1.98
2023-02-11T09:47:35.485Z,2.39
2023-02-11T09:50:07.962Z,2.67
2023-02-11T09:52:45.263Z,2.98
2023-02-11T09:55:21.592Z,2.34
2023-02-11T09:57:50.859Z,3.04
2023-02-11T10:00:24.103Z,3.23
2023-02-11T10:03:28.012Z,3.10
2023-02-11T10:06:21.282Z,3.08
2023-02-11T10:09:00.407Z,3.72
2023-02-11T10:11:37.900Z,3.86
2023-02-11T10:14:22.957Z,4.47
2023-02-11T10:17:08.289Z,4.20
2023-02-11T10:19:52.536Z,4.03
2023-02-11T10:22:26.737Z,4.39
2023-02-11T10:24:58.436Z,3.53
2023-02-11T10:27:31.915Z,2.93
2023-02-11T10:30:05.918Z,2.93
2023-02-11T10:32:43.057Z,3.53
2023-02-11T10:35:18.040Z,3.67
2023-02-11T10:37:46.909Z,3.88
2023-02-11T10:40:18.716Z,4.57
2023-02-11T10:42:49.980Z,5.05
2023-02-11T10:45:24.824Z,5.44
2023-02-11T10:47:53.451Z,5.79
2023-02-11T10:50:27.379Z,5.95
2023-02-11T10:53:13.550Z,6.46
2023-02-11T10:55:52.888Z,6.75
2023-02-11T10:58:28.215Z,6.93
2023-02-11T11:01:00.005Z,7.14
2023-02-11T11:03:33.674Z,7.18
2023-02-11T11:06:07.897Z,7.22
2023-02-11T11:08:43.338Z,6.87
2023-02-11T11:11:15.140Z,6.28
2023-02-11T11:13:56.505Z,6.77
2023-02-11T11:16:28.397Z,7.08
2023-02-11T11:19:17.343Z,6.64
2023-02-11T11:21:49.715Z,6.39
2023-02-11T11:24:22.890Z,6.51
2023-02-11T11:26:55.409Z,6.67
2023-02-11T11:29:29.334Z,7.02
2023-02-11T11:32:01.412Z,7.42
2023-02-11T11:34:32.926Z,7.16
2023-02-11T11:37:12.066Z,7.17
2023-02-11T11:39:41.236Z,7.52
2023-02-11T11:42:26.964Z,7.87
2023-02-11T11:45:01.160Z,6.44
2023-02-11T11:47:37.320Z,5.78
2023-02-11T11:50:35.429Z,6.08
2023-02-11T11:53:13.966Z,6.64
2023-02-11T11:55:46.950Z,7.14
2023-02-11T11:58:20.103Z,7.51
2023-02-11T12:00:59.147Z,7.82
2023-02-11T12:04:01.660Z,6.09
2023-02-11T12:06:42.715Z,6.20
2023-02-11T12:09:24.886Z,5.67
2023-02-11T12:12:20.968Z,5.89
2023-02-11T12:14:59.690Z,4.99
2023-02-11T12:17:48.179Z,4.75
2023-02-11T12:20:39.079Z,5.32
2023-02-11T12:23:31.269Z,5.52
2023-02-11T12:26:14.072Z,6.06
2023-02-11T12:28:57.844Z,6.59
2023-02-11T12:31:39.459Z,6.95
2023-02-11T12:34:46.303Z,6.73
2023-02-11T12:37:33.521Z,6.03
2023-02-11T12:40:15.513Z,5.20
2023-02-11T12:43:19.412Z,4.74
2023-02-11T12:46:02.710Z,5.32
2023-02-11T12:49:07.417Z,5.19
2023-02-11T12:51:56.941Z,5.10
2023-02-11T12:54:31.746Z,4.88
2023-02-11T12:57:05.198Z,4.69
2023-02-11T12:59:43.408Z,4.86
2023-02-11T13:02:25.903Z,4.48
2023-02-11T13:04:58.418Z,4.37
2023-02-11T13:07:31.182Z,4.96
2023-02-11T13:10:07.824Z,4.39
2023-02-11T13:12:55.545Z,4.93
2023-02-11T13:15:26.263Z,5.47
2023-02-11T13:18:02.243Z,5.63
2023-02-11T13:20:42.885Z,4.87
2023-02-11T13:23:20.263Z,5.41
2023-02-11T13:25:54.326Z,5.54
2023-02-11T13:28:36.067Z,4.73
2023-02-11T13:31:08.126Z,4.42
2023-02-11T13:33:39.616Z,4.17
2023-02-11T13:36:18.299Z,4.37
2023-02-11T13:38:56.946Z,4.78
2023-02-11T13:41:30.414Z,5.10
2023-02-11T13:44:02.148Z,4.94
2023-02-11T13:47:04.868Z,5.61
2023-02-11T13:49:37.592Z,5.67
2023-02-11T13:52:17.681Z,5.71
2023-02-11T13:54:51.363Z,5.54
2023-02-11T13:57:37.586Z,6.30
2023-02-11T14:00:50.082Z,5.36
2023-02-11T14:03:47.094Z,4.83
2023-02-11T14:06:37.446Z,4.76
2023-02-11T14:09:40.416Z,5.09
2023-02-11T14:12:31.555Z,5.33
2023-02-11T14:15:20.610Z,5.31
2023-02-11T14:17:49.363Z,5.07
2023-02-11T14:20:44.736Z,5.21
2023-02-11T14:23:31.136Z,5.02
2023-02-11T14:26:10.053Z,5.15
2023-02-11T14:28:41.781Z,5.54
2023-02-11T14:31:14.773Z,5.71
2023-02-11T14:34:07.310Z,6.09
2023-02-11T14:36:52.044Z,5.92
2023-02-11T14:39:47.527Z,6.10
2023-02-11T14:42:21.075Z,5.12
2023-02-11T14:44:52.047Z,5.83
2023-02-11T14:47:26.987Z,6.17
2023-02-11T14:49:56.007Z,6.54
2023-02-11T14:52:30.739Z,6.87
2023-02-11T14:55:14.718Z,6.73
2023-02-11T14:57:45.769Z,6.50
2023-02-11T15:00:21.497Z,7.02
2023-02-11T15:02:50.755Z,7.23
2023-02-11T15:05:22.759Z,6.30
2023-02-11T15:07:55.942Z,5.75
2023-02-11T15:10:33.132Z,5.72
2023-02-11T15:13:04.600Z,5.95
2023-02-11T15:15:35.924Z,5.68
2023-02-11T15:18:06.470Z,6.30
2023-02-11T15:20:35.957Z,6.36
2023-02-11T15:23:10.421Z,6.00
2023-02-11T15:25:44.327Z,5.51
2023-02-11T15:28:23.152Z,5.26
2023-02-11T15:30:59.617Z,5.55
2023-02-11T15:33:30.467Z,5.87
2023-02-11T15:36:00.585Z,5.83
2023-02-11T15:38:32.056Z,6.29
2023-02-11T15:41:02.391Z,6.59
2023-02-11T15:43:45.374Z,6.50
2023-02-11T15:46:17.978Z,6.76
2023-02-11T15:48:49.969Z,6.67
2023-02-11T15:51:22.882Z,6.03
2023-02-11T15:53:57.166Z,6.44
2023-02-11T15:56:30.862Z,6.49
2023-02-11T15:59:02.213Z,6.69
2023-02-11T16:01:34.132Z,6.91
2023-02-11T16:04:05.453Z,6.83
2023-02-11T16:06:39.481Z,7.00
2023-02-11T16:09:26.696Z,7.10
2023-02-11T16:11:58.203Z,6.97
2023-02-11T16:14:32.614Z,7.08
2023-02-11T16:17:07.063Z,6.48
2023-02-11T16:19:37.323Z,6.31
2023-02-11T16:22:11.660Z,6.64
2023-02-11T16:24:42.013Z,6.33
2023-02-11T16:27:22.903Z,6.75
2023-02-11T16:29:52.938Z,6.81
2023-02-11T16:32:24.068Z,6.50
2023-02-11T16:34:55.189Z,6.24
2023-02-11T16:37:23.940Z,6.10
2023-02-11T16:39:56.382Z,5.94
2023-02-11T16:42:25.346Z,5.98
2023-02-11T16:44:54.174Z,6.37
2023-02-11T16:47:26.181Z,6.42
2023-02-11T16:49:56.779Z,6.49
2023-02-11T16:52:26.641Z,6.59
2023-02-11T16:54:56.843Z,6.39
2023-02-11T16:57:29.649Z,6.48
2023-02-11T17:00:00.021Z,6.66
2023-02-11T17:02:30.815Z,6.80
2023-02-11T17:05:02.571Z,6.86
2023-02-11T17:07:31.394Z,6.96
2023-02-11T17:10:02.214Z,6.89
2023-02-11T17:12:30.812Z,6.92
2023-02-11T17:14:59.585Z,6.93
2023-02-11T17:17:29.457Z,7.00
2023-02-11T17:19:58.393Z,7.02
2023-02-11T17:22:27.008Z,7.05
2023-02-11T17:24:57.177Z,7.05
2023-02-11T17:27:27.149Z,7.06
2023-02-11T17:29:56.119Z,7.06
2023-02-11T17:32:24.801Z,7.07
2023-02-11T17:34:54.330Z,7.06
2023-02-11T17:37:22.901Z,6.99
2023-02-11T17:39:51.849Z,6.95
2023-02-11T17:42:20.312Z,6.86
2023-02-11T17:44:50.728Z,6.84
2023-02-11T17:47:19.287Z,6.84
2023-02-11T17:49:48.211Z,6.83
2023-02-11T17:52:16.845Z,6.80
2023-02-11T17:54:45.963Z,6.76
2023-02-11T17:57:14.925Z,6.73
2023-02-11T17:59:43.971Z,6.69
2023-02-11T18:02:14.172Z,6.73
2023-02-11T18:04:43.106Z,6.67
2023-02-11T18:07:11.689Z,6.67
2023-02-11T18:09:41.923Z,6.57
2023-02-11T18:12:11.248Z,6.56
2023-02-11T18:14:40.900Z,6.56
2023-02-11T18:17:10.509Z,6.55
2023-02-11T18:19:40.991Z,6.53
2023-02-11T18:22:09.843Z,6.52
2023-02-11T18:24:38.823Z,6.46
2023-02-11T18:27:07.367Z,6.38
2023-02-11T18:29:36.394Z,6.36
2023-02-11T18:32:05.200Z,6.34
2023-02-11T18:34:33.995Z,6.34
2023-02-11T18:37:04.005Z,6.31
2023-02-11T18:39:32.889Z,6.28
2023-02-11T18:42:01.827Z,6.20
2023-02-11T18:44:30.808Z,6.16
2023-02-11T18:46:59.379Z,6.18
2023-02-11T18:49:28.840Z,6.13
2023-02-11T18:51:58.696Z,6.13
2023-02-11T18:54:28.912Z,6.12
2023-02-11T18:56:57.488Z,6.10
2023-02-11T18:59:26.418Z,5.97
2023-02-11T19:01:55.032Z,5.67
2023-02-11T19:04:23.850Z,5.58
2023-02-11T19:06:52.552Z,5.59
2023-02-11T19:09:22.092Z,5.44
2023-02-11T19:11:53.947Z,5.52
2023-02-11T19:14:24.756Z,5.43
2023-02-11T19:16:55.598Z,5.26
2023-02-11T19:19:28.082Z,5.39
2023-02-11T19:21:58.020Z,5.28
2023-02-11T19:24:28.623Z,5.29
2023-02-11T19:27:01.292Z,5.51
2023-02-11T19:29:32.169Z,5.66
2023-02-11T19:32:00.822Z,5.80
2023-02-11T19:34:29.782Z,5.91
2023-02-11T19:36:59.713Z,5.99
2023-02-11T19:39:28.559Z,6.10
2023-02-11T19:41:58.649Z,6.17
2023-02-11T19:44:27.497Z,6.19
2023-02-11T19:46:56.129Z,6.15
2023-02-11T19:49:26.411Z,6.14
2023-02-11T19:51:58.196Z,6.28
2023-02-11T19:54:29.188Z,6.27
2023-02-11T19:57:00.008Z,6.37
2023-02-11T19:59:29.012Z,6.38
2023-02-11T20:01:57.712Z,6.46
2023-02-11T20:04:26.701Z,6.45
2023-02-11T20:06:55.201Z,6.48
2023-02-11T20:09:24.538Z,6.48
2023-02-11T20:11:53.412Z,6.50
2023-02-11T20:14:25.572Z,6.51
2023-02-11T20:16:55.374Z,6.48
2023-02-11T20:19:24.484Z,6.43
2023-02-11T20:21:56.140Z,6.47
2023-02-11T20:24:26.642Z,6.46
2023-02-11T20:26:56.573Z,6.31
2023-02-11T20:29:27.442Z,6.17
2023-02-11T20:31:56.242Z,6.15
2023-02-11T20:34:25.439Z,6.19
2023-02-11T20:36:54.909Z,6.22
2023-02-11T20:39:25.693Z,6.19
2023-02-11T20:41:54.885Z,6.18
2023-02-11T20:44:24.655Z,6.19
2023-02-11T20:46:55.569Z,6.14
2023-02-11T20:49:26.950Z,6.12
2023-02-11T20:51:58.384Z,6.01
2023-02-11T20:54:27.500Z,6.12
2023-02-11T20:56:57.088Z,6.16
2023-02-11T20:59:26.472Z,6.24
2023-02-11T21:01:57.838Z,6.36
2023-02-11T21:04:29.491Z,6.36
2023-02-11T21:07:00.293Z,6.40
2023-02-11T21:09:31.666Z,6.48
2023-02-11T21:12:00.615Z,6.45
2023-02-11T21:14:30.197Z,6.53
2023-02-11T21:17:00.127Z,6.63
2023-02-11T21:19:29.162Z,6.58
2023-02-11T21:22:00.692Z,6.66
2023-02-11T21:24:30.900Z,6.66
2023-02-11T21:27:00.278Z,6.80
2023-02-11T21:29:29.245Z,6.78
2023-02-11T21:31:59.246Z,6.74
2023-02-11T21:34:28.204Z,6.65
2023-02-11T21:36:56.860Z,6.57
2023-02-11T21:39:25.742Z,6.66
2023-02-11T21:41:55.992Z,6.43
2023-02-11T21:44:24.803Z,6.46
2023-02-11T21:46:53.478Z,6.56
2023-02-11T21:49:23.731Z,6.62
2023-02-11T21:51:52.241Z,6.63
2023-02-11T21:54:21.083Z,6.61
2023-02-11T21:56:51.949Z,6.47
2023-02-11T21:59:20.901Z,6.56
2023-02-11T22:01:50.349Z,6.59
2023-02-11T22:04:19.271Z,6.57
2023-02-11T22:06:49.417Z,6.47
2023-02-11T22:09:19.355Z,6.12
2023-02-11T22:11:49.340Z,6.23
2023-02-11T22:14:18.258Z,6.32
2023-02-11T22:16:46.935Z,6.38
2023-02-11T22:19:16.319Z,6.46
2023-02-11T22:21:44.805Z,6.47
2023-02-11T22:24:15.122Z,6.54
2023-02-11T22:26:43.823Z,6.32
2023-02-11T22:29:13.168Z,6.36
2023-02-11T22:31:42.938Z,6.34
2023-02-11T22:34:12.634Z,6.39
2023-02-11T22:36:44.705Z,6.32
2023-02-11T22:39:16.904Z,6.33
2023-02-11T22:41:47.516Z,6.37
2023-02-11T22:44:17.591Z,6.42
2023-02-11T22:46:46.203Z,6.49
2023-02-11T22:49:17.503Z,6.56
2023-02-11T22:51:46.703Z,6.61
2023-02-11T22:54:18.964Z,6.68
2023-02-11T22:56:51.626Z,6.63
2023-02-11T22:59:21.467Z,6.67
2023-02-11T23:01:50.371Z,6.71
2023-02-11T23:04:20.930Z,6.63
2023-02-11T23:06:50.435Z,6.71
2023-02-11T23:09:20.670Z,6.75
2023-02-11T23:11:49.982Z,6.69
2023-02-11T23:14:18.845Z,6.71
2023-02-11T23:16:50.746Z,6.49
2023-02-11T23:19:19.952Z,6.67
2023-02-11T23:21:52.463Z,6.67
2023-02-11T23:24:23.089Z,6.69
2023-02-11T23:26:52.089Z,6.68
2023-02-11T23:29:21.233Z,6.51
2023-02-11T23:31:49.993Z,6.61
2023-02-11T23:34:23.949Z,6.64
2023-02-11T23:36:52.588Z,6.73
2023-02-11T23:39:22.831Z,6.75
2023-02-11T23:41:53.088Z,6.73
2023-02-11T23:44:22.008Z,6.75
2023-02-11T23:46:50.553Z,6.85
2023-02-11T23:49:19.387Z,6.73
2023-02-11T23:51:47.907Z,6.83
2023-02-11T23:54:16.949Z,6.91
2023-02-11T23:56:47.039Z,6.96
2023-02-11T23:59:15.841Z,6.95
